Omaha, NE (68107)

4:17 AM CDT on July 27, 2016 (GMT -0500)
North Bellevue/Kennedy Freeway | | Change Station

Elev 1178 ft 41.19 °N, 95.94 °W | Updated 3 seconds ago

Clear
Clear
71.0 °F
Feels Like 71.0 °F
N
0.2
Wind Variable Wind from SE
Gusts 2.4 mph

Today
High -- | Low -- °F
--% Chance of Precip.
Yesterday
High -- | Low -- °F
Precip. -- in
Pressure 30.01 in
Visibility 10.0 miles
Clouds Clear
Dew Point 67 °F
Humidity 87%
Rainfall 0.00 in
Snow Depth Not available.
6:15 AM 8:45 PM
Last Quarter, 45% visible
METAR KOFF 270858Z AUTO 27002KT 10SM CLR 21/20 A3002 RMK AO2 SLP161 T02110204 50008 $
Pressure 30.01 in
Visibility 10.0 miles
Clouds Clear
Dew Point 67 °F
Humidity 87%
Rainfall 0.00 in
Snow Depth Not available.
6:15 AM 8:45 PM
Last Quarter, 45% visible
METAR KOFF 270858Z AUTO 27002KT 10SM CLR 21/20 A3002 RMK AO2 SLP161 T02110204 50008 $

10-Day Weather Forecast

Almanac

Astronomy

Jul. 27, 2016 Rise Set
Actual Time
Civil Twilight
Nautical Twilight
Astronomical Twilight
Moon
Length of Visible Light
Length of Day
Tomorrow will be .
, % of the Moon is Illuminated

Today's Extremes

State Highs State Lows

Community

WunderPhotos

Upload Photos

1,927,818 photos uploaded!

WunderBlog® & News

Nearby

Air Quality

  Air Quality AQ Index Pollutant
Not available.

Snow Depth

Station Depth Elevation

Earthquake Activity

City Distance Mag. Time & Date
Minimum magnitude displayed is 2.5.

Coastal Water Temperatures

Place Temperature

Stations

Nearby Weather Stations

Station Location Temp. Windchill Dew Point Humidity Wind Precip. Elev Updated Type
                   

Watches & Warnings

There are currently no watches in effect.